sensor_id;sensor_type;location;lat;lon;timestamp;P1;durP1;ratioP1;P2;durP2;ratioP2
62580;SDS011;48640;48.770;9.148;2023-08-31T21:07:47;7.45;;;2.33;;
62580;SDS011;48640;48.770;9.148;2023-08-31T21:10:14;5.45;;;2.55;;
62580;SDS011;48640;48.770;9.148;2023-08-31T21:12:43;5.70;;;2.42;;
62580;SDS011;48640;48.770;9.148;2023-08-31T21:15:10;6.05;;;3.10;;
62580;SDS011;48640;48.770;9.148;2023-08-31T21:17:38;6.20;;;2.67;;
62580;SDS011;48640;48.770;9.148;2023-08-31T21:20:05;6.38;;;3.05;;
62580;SDS011;48640;48.770;9.148;2023-08-31T21:22:33;6.53;;;2.67;;
62580;SDS011;48640;48.770;9.148;2023-08-31T21:25:05;4.20;;;2.50;;
62580;SDS011;48640;48.770;9.148;2023-08-31T21:27:34;4.60;;;2.65;;
62580;SDS011;48640;48.770;9.148;2023-08-31T21:30:03;8.40;;;3.10;;
62580;SDS011;48640;48.770;9.148;2023-08-31T21:32:31;8.15;;;3.33;;
62580;SDS011;48640;48.770;9.148;2023-08-31T21:34:59;9.98;;;3.15;;
62580;SDS011;48640;48.770;9.148;2023-08-31T21:37:26;6.10;;;2.90;;
62580;SDS011;48640;48.770;9.148;2023-08-31T21:39:53;7.22;;;3.53;;
62580;SDS011;48640;48.770;9.148;2023-08-31T21:42:24;5.75;;;3.05;;
62580;SDS011;48640;48.770;9.148;2023-08-31T21:44:51;8.48;;;3.30;;
62580;SDS011;48640;48.770;9.148;2023-08-31T21:47:18;6.68;;;3.38;;
62580;SDS011;48640;48.770;9.148;2023-08-31T21:49:46;8.73;;;3.35;;
62580;SDS011;48640;48.770;9.148;2023-08-31T21:52:12;10.70;;;3.70;;
62580;SDS011;48640;48.770;9.148;2023-08-31T21:54:39;6.07;;;2.72;;
62580;SDS011;48640;48.770;9.148;2023-08-31T21:57:06;8.75;;;3.72;;
62580;SDS011;48640;48.770;9.148;2023-08-31T21:59:38;9.30;;;3.65;;
62580;SDS011;48640;48.770;9.148;2023-08-31T22:02:05;9.32;;;4.30;;
62580;SDS011;48640;48.770;9.148;2023-08-31T22:04:33;6.93;;;3.67;;
62580;SDS011;48640;48.770;9.148;2023-08-31T22:07:01;6.05;;;3.40;;
62580;SDS011;48640;48.770;9.148;2023-08-31T22:09:30;10.82;;;3.88;;
62580;SDS011;48640;48.770;9.148;2023-08-31T22:11:57;8.60;;;4.43;;
62580;SDS011;48640;48.770;9.148;2023-08-31T22:14:24;8.57;;;3.72;;
62580;SDS011;48640;48.770;9.148;2023-08-31T22:16:53;8.20;;;3.38;;
62580;SDS011;48640;48.770;9.148;2023-08-31T22:19:21;8.43;;;3.03;;
62580;SDS011;48640;48.770;9.148;2023-08-31T22:21:48;7.85;;;3.28;;
62580;SDS011;48640;48.770;9.148;2023-08-31T22:24:16;7.28;;;3.08;;
62580;SDS011;48640;48.770;9.148;2023-08-31T22:26:43;7.18;;;2.85;;
62580;SDS011;48640;48.770;9.148;2023-08-31T22:29:10;7.50;;;3.63;;
62580;SDS011;48640;48.770;9.148;2023-08-31T22:31:40;8.00;;;4.05;;
62580;SDS011;48640;48.770;9.148;2023-08-31T22:34:10;7.30;;;3.33;;
62580;SDS011;48640;48.770;9.148;2023-08-31T22:36:36;9.07;;;3.17;;
62580;SDS011;48640;48.770;9.148;2023-08-31T22:39:04;8.13;;;3.95;;
62580;SDS011;48640;48.770;9.148;2023-08-31T22:41:33;7.57;;;3.50;;
62580;SDS011;48640;48.770;9.148;2023-08-31T22:44:11;9.10;;;3.70;;
62580;SDS011;48640;48.770;9.148;2023-08-31T22:46:39;7.60;;;4.40;;
62580;SDS011;48640;48.770;9.148;2023-08-31T22:49:06;8.50;;;3.42;;
62580;SDS011;48640;48.770;9.148;2023-08-31T22:51:34;8.38;;;3.72;;
62580;SDS011;48640;48.770;9.148;2023-08-31T22:54:01;8.07;;;3.80;;
62580;SDS011;48640;48.770;9.148;2023-08-31T22:56:28;5.45;;;2.60;;
62580;SDS011;48640;48.770;9.148;2023-08-31T22:58:55;7.63;;;2.60;;
62580;SDS011;48640;48.770;9.148;2023-08-31T23:01:24;8.90;;;2.40;;
62580;SDS011;48640;48.770;9.148;2023-08-31T23:03:52;7.93;;;3.38;;
62580;SDS011;48640;48.770;9.148;2023-08-31T23:06:19;6.68;;;2.55;;
62580;SDS011;48640;48.770;9.148;2023-08-31T23:08:56;4.60;;;2.30;;
62580;SDS011;48640;48.770;9.148;2023-08-31T23:11:24;6.07;;;2.97;;
62580;SDS011;48640;48.770;9.148;2023-08-31T23:13:52;6.47;;;2.30;;
62580;SDS011;48640;48.770;9.148;2023-08-31T23:16:19;7.22;;;2.58;;
62580;SDS011;48640;48.770;9.148;2023-08-31T23:18:46;7.07;;;2.42;;
62580;SDS011;48640;48.770;9.148;2023-08-31T23:21:13;4.63;;;2.10;;
62580;SDS011;48640;48.770;9.148;2023-08-31T23:23:40;3.00;;;1.80;;
62580;SDS011;48640;48.770;9.148;2023-08-31T23:26:10;5.82;;;2.60;;
62580;SDS011;48640;48.770;9.148;2023-08-31T23:28:38;3.38;;;1.98;;
62580;SDS011;48640;48.770;9.148;2023-08-31T23:31:05;5.78;;;2.05;;
62580;SDS011;48640;48.770;9.148;2023-08-31T23:33:34;3.95;;;1.70;;
62580;SDS011;48640;48.770;9.148;2023-08-31T23:36:01;4.18;;;2.55;;
62580;SDS011;48640;48.770;9.148;2023-08-31T23:38:28;4.60;;;2.38;;
62580;SDS011;48640;48.770;9.148;2023-08-31T23:40:58;3.85;;;2.00;;
62580;SDS011;48640;48.770;9.148;2023-08-31T23:43:27;4.88;;;2.45;;
62580;SDS011;48640;48.770;9.148;2023-08-31T23:45:54;3.80;;;1.58;;
62580;SDS011;48640;48.770;9.148;2023-08-31T23:48:22;8.05;;;2.13;;
62580;SDS011;48640;48.770;9.148;2023-08-31T23:50:49;4.35;;;1.75;;
62580;SDS011;48640;48.770;9.148;2023-08-31T23:53:16;3.38;;;1.85;;
62580;SDS011;48640;48.770;9.148;2023-08-31T23:55:43;5.57;;;2.15;;
62580;SDS011;48640;48.770;9.148;2023-08-31T23:58:10;3.50;;;1.63;;
